Time;durP1;ratioP1;P1;durP2;ratioP2;P2;SDS_P1;SDS_P2;PMS_P1;PMS_P2;Temp;Humidity;BMP_temperature;BMP_pressure;BME280_temperature;BME280_humidity;BME280_pressure;Samples;Min_cycle;Max_cycle;Signal;HPM_P1;HPM_P2
2022/08/05 00:00:48;;;;;;;12.00;9.00;;;;;;;;;;5035215;28;20145;-41
2022/08/05 00:03:17;;;;;;;10.27;9.18;;;;;;;;;;5035037;28;20057;-41
2022/08/05 00:05:45;;;;;;;13.27;9.27;;;;;;;;;;5035164;28;20053;-40
2022/08/05 00:08:15;;;;;;;12.07;8.80;;;;;;;;;;5035116;28;20052;-42
2022/08/05 00:10:45;;;;;;;12.55;9.20;;;;;;;;;;5035174;28;20053;-41
2022/08/05 00:13:15;;;;;;;12.07;8.05;;;;;;;;;;5032582;28;20088;-40
2022/08/05 00:15:42;;;;;;;10.05;8.57;;;;;;;;;;5053899;28;20149;-41
2022/08/05 00:18:15;;;;;;;15.68;8.63;;;;;;;;;;5054578;28;20056;-41
2022/08/05 00:20:45;;;;;;;16.23;8.98;;;;;;;;;;5054707;28;20085;-41
2022/08/05 00:23:15;;;;;;;9.48;8.55;;;;;;;;;;5054649;28;20447;-40
2022/08/05 00:25:42;;;;;;;11.65;8.60;;;;;;;;;;5018987;28;20054;-42
2022/08/05 00:28:10;;;;;;;14.25;9.48;;;;;;;;;;5023467;28;20155;-41
2022/08/05 00:30:40;;;;;;;11.07;8.55;;;;;;;;;;5054940;28;20053;-42
2022/08/05 00:33:07;;;;;;;10.60;8.88;;;;;;;;;;5055006;28;20088;-42
2022/08/05 00:35:42;;;;;;;13.85;9.20;;;;;;;;;;5054966;28;20049;-41
2022/08/05 00:38:09;;;;;;;10.05;9.05;;;;;;;;;;5054657;28;20076;-41
2022/08/05 00:40:45;;;;;;;11.95;9.77;;;;;;;;;;5054113;28;20068;-40
2022/08/05 00:43:15;;;;;;;9.73;8.73;;;;;;;;;;5040116;28;20045;-40
2022/08/05 00:45:46;;;;;;;11.52;8.82;;;;;;;;;;5041143;28;20051;-42
2022/08/05 00:48:23;;;;;;;12.27;9.60;;;;;;;;;;5053993;28;20114;-40
2022/08/05 00:51:05;;;;;;;11.48;8.82;;;;;;;;;;5042230;28;20382;-41
2022/08/05 00:53:35;;;;;;;10.20;8.70;;;;;;;;;;5016537;28;20111;-42
2022/08/05 00:56:05;;;;;;;10.98;9.27;;;;;;;;;;5014605;28;20057;-41
2022/08/05 00:58:33;;;;;;;8.88;7.97;;;;;;;;;;5014541;28;20049;-40
2022/08/05 01:01:01;;;;;;;10.15;9.02;;;;;;;;;;5014270;28;20072;-40
2022/08/05 01:03:29;;;;;;;13.20;9.45;;;;;;;;;;5014429;28;20046;-41
2022/08/05 01:06:04;;;;;;;11.90;9.23;;;;;;;;;;5026840;28;20053;-40
2022/08/05 01:08:31;;;;;;;11.40;8.40;;;;;;;;;;5033749;28;20042;-40
2022/08/05 01:11:03;;;;;;;15.70;9.75;;;;;;;;;;5033859;28;20050;-40
2022/08/05 01:13:33;;;;;;;10.75;9.27;;;;;;;;;;5034554;28;20542;-40
2022/08/05 01:16:12;;;;;;;9.90;8.85;;;;;;;;;;5053961;28;20056;-41
2022/08/05 01:18:41;;;;;;;11.52;8.93;;;;;;;;;;5053671;28;20080;-40
2022/08/05 01:21:18;;;;;;;10.57;8.73;;;;;;;;;;5053810;28;20052;-40
2022/08/05 01:24:02;;;;;;;9.07;7.82;;;;;;;;;;5049459;28;20071;-40
2022/08/05 01:26:46;;;;;;;11.55;8.90;;;;;;;;;;5013982;28;20049;-40
2022/08/05 01:29:23;;;;;;;10.73;8.37;;;;;;;;;;5040239;28;20120;-40
2022/08/05 01:31:55;;;;;;;11.38;8.38;;;;;;;;;;5053810;28;20056;-41
2022/08/05 01:34:23;;;;;;;10.80;8.70;;;;;;;;;;5053551;28;20049;-40
2022/08/05 01:36:55;;;;;;;9.82;8.50;;;;;;;;;;5053284;28;20060;-41
2022/08/05 01:39:31;;;;;;;11.63;9.02;;;;;;;;;;5053548;28;20072;-40
2022/08/05 01:42:06;;;;;;;10.88;8.88;;;;;;;;;;5048814;28;20049;-39
2022/08/05 01:44:51;;;;;;;12.05;9.23;;;;;;;;;;5033485;28;20064;-40
2022/08/05 01:47:21;;;;;;;12.02;9.10;;;;;;;;;;5033627;28;20049;-40
2022/08/05 01:49:50;;;;;;;15.70;9.35;;;;;;;;;;5030539;28;20081;-40
2022/08/05 01:52:21;;;;;;;14.30;8.60;;;;;;;;;;5024842;28;20056;-41
2022/08/05 01:54:58;;;;;;;13.55;8.27;;;;;;;;;;5033081;28;20053;-39
2022/08/05 01:57:36;;;;;;;11.95;8.32;;;;;;;;;;5033390;28;20053;-40
2022/08/05 02:00:17;;;;;;;18.30;9.45;;;;;;;;;;5033313;28;20049;-40
2022/08/05 02:02:49;;;;;;;18.33;9.90;;;;;;;;;;5033298;28;20057;-39
2022/08/05 02:05:18;;;;;;;11.00;9.40;;;;;;;;;;5032338;28;20068;-41
2022/08/05 02:07:47;;;;;;;10.32;8.20;;;;;;;;;;5033254;28;20049;-39
2022/08/05 02:10:16;;;;;;;11.05;9.13;;;;;;;;;;5033060;28;20046;-39
2022/08/05 02:12:49;;;;;;;13.95;9.30;;;;;;;;;;5033233;28;20064;-40
2022/08/05 02:15:28;;;;;;;11.95;8.73;;;;;;;;;;5048644;28;20124;-40
2022/08/05 02:18:06;;;;;;;13.70;9.57;;;;;;;;;;5053135;28;20041;-39
2022/08/05 02:20:37;;;;;;;11.60;9.48;;;;;;;;;;5052989;28;20041;-40
2022/08/05 02:23:14;;;;;;;14.65;9.05;;;;;;;;;;5053029;28;20057;-41
2022/08/05 02:25:46;;;;;;;13.82;8.77;;;;;;;;;;5017368;28;20054;-39
2022/08/05 02:28:17;;;;;;;13.00;9.48;;;;;;;;;;5022960;28;20104;-40
2022/08/05 02:30:52;;;;;;;11.55;8.77;;;;;;;;;;5052922;28;20080;-40
2022/08/05 02:33:22;;;;;;;10.15;8.02;;;;;;;;;;5053078;28;20041;-39
2022/08/05 02:35:53;;;;;;;10.52;8.88;;;;;;;;;;5052414;28;20482;-39
2022/08/05 02:38:23;;;;;;;14.48;8.98;;;;;;;;;;5052746;28;20107;-39
2022/08/05 02:40:53;;;;;;;11.45;8.63;;;;;;;;;;5052576;28;20057;-39
2022/08/05 02:43:29;;;;;;;11.90;8.77;;;;;;;;;;5036921;28;20585;-39
2022/08/05 02:46:00;;;;;;;13.18;10.02;;;;;;;;;;5032918;28;20057;-39
2022/08/05 02:48:29;;;;;;;13.35;8.70;;;;;;;;;;5032675;28;20053;-40
2022/08/05 02:51:00;;;;;;;14.45;10.30;;;;;;;;;;5020021;28;20054;-40
2022/08/05 02:53:34;;;;;;;9.43;7.93;;;;;;;;;;5029439;28;20092;-40
2022/08/05 02:56:04;;;;;;;11.05;8.52;;;;;;;;;;5032172;28;20545;-39
2022/08/05 02:58:34;;;;;;;19.52;10.05;;;;;;;;;;5032194;28;20482;-39
2022/08/05 03:01:03;;;;;;;14.25;8.43;;;;;;;;;;5032455;28;20418;-39
2022/08/05 03:03:39;;;;;;;9.90;8.88;;;;;;;;;;5032479;28;20466;-40
2022/08/05 03:06:08;;;;;;;13.85;10.18;;;;;;;;;;5032632;28;20049;-40
2022/08/05 03:08:38;;;;;;;11.18;9.25;;;;;;;;;;5032666;28;20060;-40
2022/08/05 03:11:07;;;;;;;11.85;9.55;;;;;;;;;;5032656;28;20148;-40
2022/08/05 03:13:37;;;;;;;11.05;8.57;;;;;;;;;;5033927;28;20087;-39
2022/08/05 03:16:07;;;;;;;12.38;10.00;;;;;;;;;;5053275;28;20049;-40
2022/08/05 03:18:36;;;;;;;10.70;8.45;;;;;;;;;;5056025;28;20462;-39
2022/08/05 03:21:06;;;;;;;10.50;9.40;;;;;;;;;;5055821;28;20053;-39
2022/08/05 03:23:34;;;;;;;13.10;10.15;;;;;;;;;;5055671;28;20076;-39
2022/08/05 03:26:04;;;;;;;12.98;9.05;;;;;;;;;;5016072;28;20479;-39
2022/08/05 03:28:33;;;;;;;11.27;9.73;;;;;;;;;;5030500;28;20045;-39
2022/08/05 03:31:01;;;;;;;13.48;9.90;;;;;;;;;;5055774;28;20053;-39
2022/08/05 03:33:31;;;;;;;13.32;9.88;;;;;;;;;;5055556;28;20049;-39
2022/08/05 03:36:01;;;;;;;14.45;10.20;;;;;;;;;;5055741;28;20068;-39
2022/08/05 03:38:30;;;;;;;17.55;10.40;;;;;;;;;;5055836;28;20052;-42
2022/08/05 03:40:57;;;;;;;13.75;10.52;;;;;;;;;;5055463;28;20057;-39
2022/08/05 03:43:27;;;;;;;19.02;10.82;;;;;;;;;;5039859;28;20057;-39
2022/08/05 03:45:57;;;;;;;12.60;10.35;;;;;;;;;;5027377;28;20081;-40
2022/08/05 03:48:27;;;;;;;14.80;10.13;;;;;;;;;;5015906;28;20050;-39
2022/08/05 03:51:14;;;;;;;12.38;9.43;;;;;;;;;;5015966;28;20050;-39
2022/08/05 03:53:49;;;;;;;12.55;9.70;;;;;;;;;;5015559;28;20116;-39
2022/08/05 03:56:25;;;;;;;9.77;8.55;;;;;;;;;;5015550;28;20364;-40
2022/08/05 03:58:55;;;;;;;11.68;8.43;;;;;;;;;;5029428;28;20462;-40
2022/08/05 04:01:23;;;;;;;12.30;9.38;;;;;;;;;;5035497;28;20053;-41
2022/08/05 04:03:51;;;;;;;12.07;9.32;;;;;;;;;;5035338;28;20076;-40
2022/08/05 04:06:26;;;;;;;12.10;8.85;;;;;;;;;;5034977;28;20133;-40
2022/08/05 04:08:54;;;;;;;10.57;9.38;;;;;;;;;;5035464;28;20057;-40
2022/08/05 04:11:24;;;;;;;9.05;7.40;;;;;;;;;;5035091;28;20061;-40
2022/08/05 04:13:51;;;;;;;12.85;7.90;;;;;;;;;;5038709;28;20067;-40
2022/08/05 04:16:17;;;;;;;11.32;8.27;;;;;;;;;;5055088;28;20064;-42
2022/08/05 04:18:45;;;;;;;14.48;7.68;;;;;;;;;;5055194;28;20053;-40
2022/08/05 04:21:15;;;;;;;9.23;7.07;;;;;;;;;;5054969;28;20060;-42
2022/08/05 04:23:52;;;;;;;35.05;9.25;;;;;;;;;;5052265;28;20048;-40
2022/08/05 04:26:19;;;;;;;11.93;7.65;;;;;;;;;;5014950;28;20056;-40
2022/08/05 04:28:49;;;;;;;13.77;8.30;;;;;;;;;;5032805;28;20466;-42
2022/08/05 04:31:19;;;;;;;11.50;7.20;;;;;;;;;;5055060;28;20053;-40
2022/08/05 04:33:49;;;;;;;17.45;7.60;;;;;;;;;;5054692;28;20049;-40
2022/08/05 04:36:15;;;;;;;21.10;7.38;;;;;;;;;;5054736;28;20052;-40
2022/08/05 04:38:56;;;;;;;11.43;6.63;;;;;;;;;;5054773;28;20053;-40
2022/08/05 04:41:24;;;;;;;14.20;7.55;;;;;;;;;;5053988;28;20440;-40
2022/08/05 04:43:54;;;;;;;8.55;6.50;;;;;;;;;;5034804;28;20073;-40
2022/08/05 04:46:24;;;;;;;19.92;7.60;;;;;;;;;;5034496;28;20064;-41
2022/08/05 04:48:54;;;;;;;7.10;6.40;;;;;;;;;;5034640;28;20139;-40
2022/08/05 04:51:24;;;;;;;11.20;6.38;;;;;;;;;;5018777;28;20049;-41
2022/08/05 04:53:54;;;;;;;8.55;6.45;;;;;;;;;;5018160;28;20057;-40
2022/08/05 04:56:24;;;;;;;12.52;6.32;;;;;;;;;;5032971;28;20061;-40
2022/08/05 04:58:52;;;;;;;9.40;6.38;;;;;;;;;;5034024;28;20367;-41
2022/08/05 05:01:20;;;;;;;9.20;5.78;;;;;;;;;;5034249;28;20053;-41
2022/08/05 05:03:50;;;;;;;5.75;5.22;;;;;;;;;;5034176;28;20053;-42
2022/08/05 05:06:20;;;;;;;8.35;5.82;;;;;;;;;;5033753;28;20396;-41
2022/08/05 05:08:50;;;;;;;6.82;5.22;;;;;;;;;;5033963;28;20443;-41
2022/08/05 05:11:25;;;;;;;9.57;5.50;;;;;;;;;;5034316;28;20050;-42
2022/08/05 05:13:51;;;;;;;16.88;6.50;;;;;;;;;;5038015;28;20053;-42
2022/08/05 05:16:20;;;;;;;6.43;5.20;;;;;;;;;;5053714;28;20061;-41
2022/08/05 05:18:49;;;;;;;6.72;4.75;;;;;;;;;;5053580;28;20144;-42
2022/08/05 05:21:19;;;;;;;5.82;5.07;;;;;;;;;;5053719;28;20045;-41
2022/08/05 05:23:48;;;;;;;5.85;4.90;;;;;;;;;;5050087;28;20053;-41
2022/08/05 05:26:16;;;;;;;8.57;4.80;;;;;;;;;;5013820;28;20491;-40
2022/08/05 05:28:45;;;;;;;7.38;4.95;;;;;;;;;;5031811;28;20075;-40
2022/08/05 05:31:15;;;;;;;7.22;4.70;;;;;;;;;;5053603;28;20057;-41
2022/08/05 05:33:45;;;;;;;7.15;4.88;;;;;;;;;;5053691;28;20061;-41
2022/08/05 05:36:15;;;;;;;11.35;4.88;;;;;;;;;;5053542;28;20061;-41
2022/08/05 05:38:43;;;;;;;8.73;4.75;;;;;;;;;;5052680;28;20429;-41
2022/08/05 05:41:11;;;;;;;7.25;4.47;;;;;;;;;;5035411;28;20058;-41
2022/08/05 05:43:41;;;;;;;45.92;7.30;;;;;;;;;;5033428;28;20065;-42
2022/08/05 05:46:16;;;;;;;4.80;4.32;;;;;;;;;;5033290;28;20046;-40
2022/08/05 05:48:47;;;;;;;5.40;4.18;;;;;;;;;;5033415;28;20053;-41
2022/08/05 05:51:20;;;;;;;6.95;4.40;;;;;;;;;;5019595;28;20054;-41
2022/08/05 05:54:00;;;;;;;7.57;4.65;;;;;;;;;;5033164;28;20136;-41
2022/08/05 05:56:37;;;;;;;4.75;4.18;;;;;;;;;;5033275;28;20084;-41
2022/08/05 05:59:06;;;;;;;6.28;4.10;;;;;;;;;;5033576;28;20060;-41
2022/08/05 06:01:48;;;;;;;7.10;3.97;;;;;;;;;;5032659;28;20103;-41
2022/08/05 06:04:16;;;;;;;6.10;3.97;;;;;;;;;;5033338;28;20053;-42
2022/08/05 06:06:44;;;;;;;6.95;4.07;;;;;;;;;;5032789;28;20045;-42
2022/08/05 06:09:12;;;;;;;21.02;5.35;;;;;;;;;;5033337;28;20280;-41
2022/08/05 06:11:41;;;;;;;11.68;4.53;;;;;;;;;;5033209;28;20156;-41
2022/08/05 06:14:11;;;;;;;9.98;5.07;;;;;;;;;;5038151;28;20067;-41
2022/08/05 06:16:42;;;;;;;7.28;4.80;;;;;;;;;;5042752;28;20045;-42
2022/08/05 06:19:09;;;;;;;6.75;4.38;;;;;;;;;;5017337;28;20111;-40
2022/08/05 06:21:36;;;;;;;4.72;3.80;;;;;;;;;;5016336;28;20444;-41
2022/08/05 06:24:05;;;;;;;6.68;4.38;;;;;;;;;;5025047;28;20136;-40
2022/08/05 06:26:33;;;;;;;21.98;5.00;;;;;;;;;;5022234;28;20518;-42
2022/08/05 06:28:59;;;;;;;7.53;4.00;;;;;;;;;;5025685;28;20049;-41
2022/08/05 06:31:29;;;;;;;5.28;3.90;;;;;;;;;;5022319;28;20049;-42
2022/08/05 06:34:10;;;;;;;9.07;4.57;;;;;;;;;;5022029;28;20046;-41
2022/08/05 06:36:40;;;;;;;10.93;4.50;;;;;;;;;;5020225;28;20046;-40
2022/08/05 06:39:08;;;;;;;16.98;5.20;;;;;;;;;;5021759;28;20081;-42
2022/08/05 06:41:38;;;;;;;5.85;3.70;;;;;;;;;;5037889;28;20049;-40
2022/08/05 06:44:05;;;;;;;28.02;4.10;;;;;;;;;;5032977;28;20108;-41
2022/08/05 06:46:33;;;;;;;7.40;4.25;;;;;;;;;;5020270;28;20079;-42
2022/08/05 06:49:14;;;;;;;14.60;5.00;;;;;;;;;;5012168;28;20132;-41
2022/08/05 06:51:41;;;;;;;10.40;4.13;;;;;;;;;;5026421;28;20057;-45
2022/08/05 06:54:10;;;;;;;6.95;3.95;;;;;;;;;;5034626;28;20394;-43
2022/08/05 06:56:40;;;;;;;13.18;4.60;;;;;;;;;;5035279;28;20536;-41
2022/08/05 06:59:08;;;;;;;5.55;3.60;;;;;;;;;;5033028;28;20489;-41
2022/08/05 07:01:35;;;;;;;9.50;3.65;;;;;;;;;;5022955;28;20049;-40
2022/08/05 07:04:17;;;;;;;10.38;4.15;;;;;;;;;;5035994;28;20076;-42
2022/08/05 07:06:43;;;;;;;4.05;3.42;;;;;;;;;;5035401;28;20132;-38
2022/08/05 07:09:11;;;;;;;37.90;7.00;;;;;;;;;;5024171;28;20145;-38
2022/08/05 07:11:38;;;;;;;10.07;3.67;;;;;;;;;;5016369;28;20038;-45
2022/08/05 07:16:58;;;;;;;4.70;3.58;;;;;;;;;;5015571;28;20478;-40
2022/08/05 07:19:43;;;;;;;5.65;3.20;;;;;;;;;;5015144;28;20178;-43
2022/08/05 07:22:12;;;;;;;5.22;3.38;;;;;;;;;;5018398;28;20065;-44
2022/08/05 07:24:41;;;;;;;3.85;3.10;;;;;;;;;;5022991;28;20155;-44
2022/08/05 07:27:09;;;;;;;3.67;3.15;;;;;;;;;;5019837;28;20073;-47
2022/08/05 07:32:16;;;;;;;5.80;3.05;;;;;;;;;;5020168;28;20063;-45
2022/08/05 07:34:49;;;;;;;6.80;3.10;;;;;;;;;;5022924;28;20053;-47
2022/08/05 07:37:18;;;;;;;3.35;2.70;;;;;;;;;;5021808;28;20137;-44
2022/08/05 07:39:46;;;;;;;6.00;3.30;;;;;;;;;;5014837;28;20053;-48
2022/08/05 07:42:16;;;;;;;6.45;3.58;;;;;;;;;;5025212;28;20387;-48
2022/08/05 07:44:43;;;;;;;4.15;2.58;;;;;;;;;;5022682;28;20057;-44
2022/08/05 07:47:11;;;;;;;7.30;3.17;;;;;;;;;;5034321;28;20045;-47
2022/08/05 07:49:41;;;;;;;4.80;2.50;;;;;;;;;;5034694;28;20064;-45
2022/08/05 07:52:12;;;;;;;8.23;2.58;;;;;;;;;;5028266;28;20471;-45
2022/08/05 07:54:40;;;;;;;5.40;3.22;;;;;;;;;;5015793;28;20455;-45
2022/08/05 07:57:08;;;;;;;4.25;3.10;;;;;;;;;;5019899;28;20058;-47
2022/08/05 07:59:44;;;;;;;3.10;2.80;;;;;;;;;;5012607;28;20058;-47
2022/08/05 08:02:14;;;;;;;4.55;2.63;;;;;;;;;;5018030;28;20447;-46
2022/08/05 08:04:44;;;;;;;4.70;2.58;;;;;;;;;;5014521;28;20057;-46
2022/08/05 08:07:17;;;;;;;3.30;2.42;;;;;;;;;;5030515;28;20661;-44
2022/08/05 08:09:53;;;;;;;3.67;2.75;;;;;;;;;;5034693;28;20064;-45
2022/08/05 08:12:22;;;;;;;4.82;2.90;;;;;;;;;;5034031;28;20382;-45
2022/08/05 08:14:52;;;;;;;4.63;2.65;;;;;;;;;;5027803;28;20050;-46
2022/08/05 08:17:22;;;;;;;6.68;2.92;;;;;;;;;;5022174;28;20057;-41
2022/08/05 08:19:53;;;;;;;9.70;3.45;;;;;;;;;;5015038;28;20058;-41
2022/08/05 08:22:25;;;;;;;8.68;3.30;;;;;;;;;;5015011;28;20053;-41
2022/08/05 08:24:53;;;;;;;4.85;2.70;;;;;;;;;;5030633;28;20045;-42
2022/08/05 08:27:23;;;;;;;5.18;2.92;;;;;;;;;;5021211;28;20383;-41
2022/08/05 08:29:49;;;;;;;5.15;2.55;;;;;;;;;;5026324;28;20467;-40
2022/08/05 08:32:17;;;;;;;7.55;2.67;;;;;;;;;;5032630;28;20365;-41
2022/08/05 08:34:47;;;;;;;4.45;2.60;;;;;;;;;;5021968;28;20050;-40
2022/08/05 08:37:13;;;;;;;6.65;2.63;;;;;;;;;;5027969;28;20053;-40
2022/08/05 08:39:41;;;;;;;6.13;2.50;;;;;;;;;;5018301;28;20076;-40
2022/08/05 08:42:11;;;;;;;9.60;2.50;;;;;;;;;;5032892;28;20049;-40
2022/08/05 08:44:39;;;;;;;6.25;2.72;;;;;;;;;;5027146;28;20057;-40
2022/08/05 08:47:07;;;;;;;12.90;3.97;;;;;;;;;;5026615;28;20057;-40
2022/08/05 08:49:37;;;;;;;20.17;3.60;;;;;;;;;;5028456;28;20771;-43
2022/08/05 08:52:11;;;;;;;19.60;4.45;;;;;;;;;;5028208;28;20425;-44
2022/08/05 08:54:39;;;;;;;10.30;3.22;;;;;;;;;;5027912;28;20058;-43
2022/08/05 08:57:07;;;;;;;6.13;2.30;;;;;;;;;;5033353;28;20085;-43
2022/08/05 08:59:34;;;;;;;7.35;2.20;;;;;;;;;;5021985;28;20414;-44
2022/08/05 09:02:08;;;;;;;27.90;3.35;;;;;;;;;;5031391;28;20053;-43
2022/08/05 09:04:36;;;;;;;8.15;2.47;;;;;;;;;;5022653;28;20140;-42
2022/08/05 09:07:06;;;;;;;7.07;2.42;;;;;;;;;;5033919;28;20132;-44
2022/08/05 09:09:37;;;;;;;4.30;2.33;;;;;;;;;;5033610;28;20053;-44
2022/08/05 09:12:26;;;;;;;15.98;3.20;;;;;;;;;;5023310;28;20057;-43
2022/08/05 09:18:13;;;;;;;11.13;2.70;;;;;;;;;;5025654;28;20061;-45
2022/08/05 09:26:41;;;;;;;11.68;2.90;;;;;;;;;;5023300;28;20059;-43
2022/08/05 09:34:51;;;;;;;6.30;2.40;;;;;;;;;;2868762;26;20061;-95
2022/08/05 09:37:22;;;;;;;4.75;2.50;;;;;;;;;;5019388;28;20084;-93
2022/08/05 09:39:51;;;;;;;5.80;2.53;;;;;;;;;;5021976;28;20057;-94
2022/08/05 09:42:20;;;;;;;8.60;2.72;;;;;;;;;;5025798;28;20137;-96
2022/08/05 09:44:55;;;;;;;7.03;2.97;;;;;;;;;;5016155;28;20089;-94
2022/08/05 09:47:23;;;;;;;6.90;2.25;;;;;;;;;;5015387;28;20073;-94
2022/08/05 09:49:50;;;;;;;5.15;2.50;;;;;;;;;;5015463;28;20741;-95
2022/08/05 09:52:18;;;;;;;5.63;2.40;;;;;;;;;;5015434;28;20053;-96
2022/08/05 09:54:53;;;;;;;10.93;3.28;;;;;;;;;;5016038;28;20089;-94
2022/08/05 09:57:28;;;;;;;6.00;2.35;;;;;;;;;;5016615;28;20080;-92
2022/08/05 09:59:57;;;;;;;8.40;2.92;;;;;;;;;;5017428;28;20133;-92
2022/08/05 10:02:33;;;;;;;12.82;2.97;;;;;;;;;;5015924;28;20046;-92
2022/08/05 10:05:05;;;;;;;11.13;2.70;;;;;;;;;;5024358;28;20037;-94
2022/08/05 10:07:56;;;;;;;19.17;3.70;;;;;;;;;;5021134;28;20045;-94
2022/08/05 10:10:25;;;;;;;27.70;4.50;;;;;;;;;;5021164;28;20093;-92
2022/08/05 10:12:55;;;;;;;5.13;2.75;;;;;;;;;;5023368;28;20064;-90
2022/08/05 10:15:23;;;;;;;9.40;2.70;;;;;;;;;;5023345;28;20077;-95
2022/08/05 10:18:04;;;;;;;8.23;2.28;;;;;;;;;;5020100;28;20808;-93
2022/08/05 10:20:31;;;;;;;8.85;2.28;;;;;;;;;;5027966;28;20049;-94
2022/08/05 10:22:58;;;;;;;8.00;2.70;;;;;;;;;;5029536;28;20052;-94
2022/08/05 10:25:26;;;;;;;7.57;2.55;;;;;;;;;;5019470;28;20060;-93
2022/08/05 10:27:52;;;;;;;11.02;2.70;;;;;;;;;;5019917;28;20452;-94
2022/08/05 10:30:19;;;;;;;3.85;2.20;;;;;;;;;;5026873;28;20057;-93
2022/08/05 10:32:45;;;;;;;7.03;2.65;;;;;;;;;;5028047;28;20157;-95
2022/08/05 10:35:12;;;;;;;7.10;2.70;;;;;;;;;;5039186;28;20069;-94
2022/08/05 10:37:40;;;;;;;6.90;2.70;;;;;;;;;;5021991;28;20377;-95
2022/08/05 10:40:10;;;;;;;6.10;2.88;;;;;;;;;;5022302;28;20061;-96
2022/08/05 10:42:38;;;;;;;4.97;2.58;;;;;;;;;;5023461;28;20451;-96
2022/08/05 10:45:05;;;;;;;4.93;2.42;;;;;;;;;;5032427;28;20052;-96
2022/08/05 10:47:35;;;;;;;9.80;2.45;;;;;;;;;;5032579;28;20057;-94
2022/08/05 10:50:12;;;;;;;3.55;2.22;;;;;;;;;;5022025;28;20046;-96
2022/08/05 10:52:46;;;;;;;4.85;2.13;;;;;;;;;;5031834;28;20054;-96
2022/08/05 10:55:17;;;;;;;5.15;2.20;;;;;;;;;;5041860;28;20175;-95
2022/08/05 10:57:45;;;;;;;9.60;2.92;;;;;;;;;;5022038;28;20133;-96
2022/08/05 11:00:14;;;;;;;6.88;2.40;;;;;;;;;;5021948;28;20057;-95
2022/08/05 11:02:55;;;;;;;6.38;2.60;;;;;;;;;;5037773;28;20053;-96
2022/08/05 11:05:22;;;;;;;5.53;2.65;;;;;;;;;;5025212;28;20054;-94
2022/08/05 11:07:57;;;;;;;4.97;2.15;;;;;;;;;;5021396;28;20045;-95
2022/08/05 11:10:27;;;;;;;4.13;2.28;;;;;;;;;;5021676;28;20073;-96
2022/08/05 11:12:58;;;;;;;5.30;2.40;;;;;;;;;;5021536;28;20089;-96
2022/08/05 11:15:27;;;;;;;7.57;2.55;;;;;;;;;;5020914;28;20104;-95
2022/08/05 11:17:54;;;;;;;6.07;2.75;;;;;;;;;;5020562;28;20125;-94
2022/08/05 11:20:36;;;;;;;3.35;2.03;;;;;;;;;;5028233;28;20574;-95
2022/08/05 11:23:17;;;;;;;47.40;5.60;;;;;;;;;;5022183;28;20041;-95
2022/08/05 11:26:00;;;;;;;7.40;2.72;;;;;;;;;;5041172;28;20132;-94
2022/08/05 11:28:43;;;;;;;4.53;2.47;;;;;;;;;;5019774;28;20109;-96
2022/08/05 11:31:31;;;;;;;9.35;3.63;;;;;;;;;;5021952;28;20076;-94
2022/08/05 11:34:02;;;;;;;10.75;2.97;;;;;;;;;;5039102;28;20059;-93
2022/08/05 11:36:43;;;;;;;5.78;2.53;;;;;;;;;;5041407;28;20107;-95
2022/08/05 11:39:10;;;;;;;5.45;2.10;;;;;;;;;;5037982;28;20057;-93
2022/08/05 11:41:37;;;;;;;4.35;2.22;;;;;;;;;;5030816;28;20131;-93
2022/08/05 11:44:06;;;;;;;8.63;2.47;;;;;;;;;;5031657;28;20501;-93
2022/08/05 11:46:34;;;;;;;5.00;3.35;;;;;;;;;;5036220;28;20057;-93
2022/08/05 11:49:01;;;;;;;8.65;2.50;;;;;;;;;;5030991;28;20053;-94
2022/08/05 11:51:29;;;;;;;5.15;2.45;;;;;;;;;;5030584;28;20063;-94
2022/08/05 11:53:56;;;;;;;4.18;2.72;;;;;;;;;;5034245;28;20073;-94
2022/08/05 11:56:23;;;;;;;5.00;2.50;;;;;;;;;;5028955;28;20546;-94
2022/08/05 11:58:50;;;;;;;6.60;2.60;;;;;;;;;;5037607;28;20049;-96
2022/08/05 12:01:32;;;;;;;6.72;2.75;;;;;;;;;;5035493;28;20411;-94
2022/08/05 12:04:00;;;;;;;7.43;2.45;;;;;;;;;;5024237;28;20077;-96
2022/08/05 12:06:32;;;;;;;5.35;2.33;;;;;;;;;;5037540;28;20460;-95
2022/08/05 12:08:59;;;;;;;4.88;2.70;;;;;;;;;;5026460;28;20139;-93
2022/08/05 12:11:28;;;;;;;7.68;3.00;;;;;;;;;;5028059;28;20088;-95
2022/08/05 12:13:54;;;;;;;4.35;3.00;;;;;;;;;;5031437;28;20052;-96
2022/08/05 12:16:22;;;;;;;6.22;2.42;;;;;;;;;;5022778;28;20387;-94
2022/08/05 12:18:48;;;;;;;8.88;3.10;;;;;;;;;;5034076;28;20141;-94
2022/08/05 12:21:18;;;;;;;7.20;2.75;;;;;;;;;;5024255;28;20046;-95
2022/08/05 12:23:58;;;;;;;6.70;2.70;;;;;;;;;;5024513;28;20046;-94
2022/08/05 12:26:26;;;;;;;7.65;2.72;;;;;;;;;;5028058;28;20084;-96
2022/08/05 12:28:52;;;;;;;4.72;2.40;;;;;;;;;;5037795;28;20136;-96
2022/08/05 12:31:19;;;;;;;3.35;2.85;;;;;;;;;;5030787;28;20061;-96
2022/08/05 12:33:48;;;;;;;38.00;5.75;;;;;;;;;;5035584;28;20104;-96
2022/08/05 12:36:20;;;;;;;8.60;2.67;;;;;;;;;;5032796;28;20116;-95
2022/08/05 12:38:47;;;;;;;6.57;2.85;;;;;;;;;;5021061;28;20129;-96
2022/08/05 12:41:15;;;;;;;19.08;3.20;;;;;;;;;;5026606;28;20053;-95
2022/08/05 12:43:50;;;;;;;6.15;2.58;;;;;;;;;;5032919;28;20049;-95
2022/08/05 12:46:23;;;;;;;13.60;2.72;;;;;;;;;;5039145;28;20073;-95
2022/08/05 12:49:00;;;;;;;5.43;2.40;;;;;;;;;;5035125;28;20088;-93
2022/08/05 12:51:30;;;;;;;12.43;3.00;;;;;;;;;;5037441;28;20056;-95
2022/08/05 12:54:00;;;;;;;4.45;2.70;;;;;;;;;;5031453;28;20041;-93
2022/08/05 12:56:27;;;;;;;4.82;2.65;;;;;;;;;;5027656;28;20053;-94
2022/08/05 12:59:13;;;;;;;7.35;2.90;;;;;;;;;;5037899;28;20488;-93
2022/08/05 13:01:40;;;;;;;6.63;2.67;;;;;;;;;;5036679;28;20059;-94
2022/08/05 13:04:06;;;;;;;3.17;2.65;;;;;;;;;;5035663;28;20059;-93
2022/08/05 13:06:36;;;;;;;4.13;2.47;;;;;;;;;;5028970;28;20069;-93
2022/08/05 13:09:06;;;;;;;3.47;2.50;;;;;;;;;;5036717;28;20056;-94
2022/08/05 13:11:32;;;;;;;5.53;2.47;;;;;;;;;;5028396;28;20111;-95
2022/08/05 13:13:59;;;;;;;5.53;2.65;;;;;;;;;;5028427;28;20045;-95
2022/08/05 13:16:25;;;;;;;5.53;2.78;;;;;;;;;;5029148;28;20072;-96
2022/08/05 13:18:52;;;;;;;11.27;2.83;;;;;;;;;;5039588;28;20080;-93
2022/08/05 13:21:19;;;;;;;8.65;2.47;;;;;;;;;;5033321;28;20061;-94
2022/08/05 13:23:49;;;;;;;4.13;2.53;;;;;;;;;;5020799;28;20096;-96
2022/08/05 13:26:16;;;;;;;4.82;2.47;;;;;;;;;;5025447;28;20132;-95
2022/08/05 13:28:44;;;;;;;9.18;2.47;;;;;;;;;;5038874;28;20060;-94
2022/08/05 13:31:11;;;;;;;8.95;2.95;;;;;;;;;;5037263;28;20088;-94
2022/08/05 13:33:37;;;;;;;5.15;2.97;;;;;;;;;;5025239;28;20045;-95
2022/08/05 13:36:04;;;;;;;8.23;3.00;;;;;;;;;;5019295;28;20066;-95
2022/08/05 13:38:30;;;;;;;9.65;2.60;;;;;;;;;;5024980;28;20053;-95
2022/08/05 13:40:58;;;;;;;5.75;2.65;;;;;;;;;;5029551;28;20049;-93
2022/08/05 13:43:25;;;;;;;4.85;2.60;;;;;;;;;;5023455;28;20060;-92
2022/08/05 13:45:51;;;;;;;6.00;2.85;;;;;;;;;;5028633;28;20041;-96
2022/08/05 13:48:18;;;;;;;10.52;2.72;;;;;;;;;;5034541;28;20091;-96
2022/08/05 13:50:44;;;;;;;5.40;2.60;;;;;;;;;;5038180;28;20092;-94
2022/08/05 13:53:11;;;;;;;5.13;2.63;;;;;;;;;;5022518;28;20137;-95
2022/08/05 13:55:38;;;;;;;58.05;7.25;;;;;;;;;;5019558;28;20084;-96
2022/08/05 13:58:06;;;;;;;7.50;2.70;;;;;;;;;;5024532;28;20054;-95
2022/08/05 14:00:35;;;;;;;5.28;2.70;;;;;;;;;;5035643;28;20053;-96
2022/08/05 14:03:02;;;;;;;5.03;2.80;;;;;;;;;;5037230;28;20387;-95
2022/08/05 14:05:28;;;;;;;4.68;2.53;;;;;;;;;;5037580;28;20110;-94
2022/08/05 14:07:55;;;;;;;5.50;2.90;;;;;;;;;;5026064;28;20539;-93
2022/08/05 14:10:22;;;;;;;5.18;2.45;;;;;;;;;;5033926;28;20081;-94
2022/08/05 14:12:49;;;;;;;8.10;3.28;;;;;;;;;;5035381;28;20045;-94
2022/08/05 14:15:17;;;;;;;6.03;2.72;;;;;;;;;;5036211;28;20156;-95
2022/08/05 14:17:44;;;;;;;10.52;3.20;;;;;;;;;;5029405;28;20108;-95
2022/08/05 14:20:12;;;;;;;22.33;3.97;;;;;;;;;;5015837;28;20435;-95
2022/08/05 14:22:39;;;;;;;3.55;2.80;;;;;;;;;;5016105;28;20066;-95
2022/08/05 14:25:06;;;;;;;7.82;3.00;;;;;;;;;;5030058;28;20088;-95
2022/08/05 14:27:33;;;;;;;3.75;2.47;;;;;;;;;;5028437;28;20062;-94
2022/08/05 14:29:59;;;;;;;5.00;2.70;;;;;;;;;;5017333;28;20045;-94
2022/08/05 14:32:29;;;;;;;6.97;2.50;;;;;;;;;;5017334;28;20081;-94
2022/08/05 14:34:56;;;;;;;4.55;2.67;;;;;;;;;;5022696;28;20121;-94
2022/08/05 14:37:26;;;;;;;7.07;3.05;;;;;;;;;;5026230;28;20467;-96
2022/08/05 14:39:56;;;;;;;7.53;3.00;;;;;;;;;;5037534;28;20053;-96
2022/08/05 14:42:22;;;;;;;5.45;2.80;;;;;;;;;;5029740;28;20120;-96
2022/08/05 14:44:50;;;;;;;7.18;3.13;;;;;;;;;;5023745;28;20050;-96
2022/08/05 14:47:17;;;;;;;5.65;3.08;;;;;;;;;;5020190;28;20117;-95
2022/08/05 14:49:45;;;;;;;29.85;4.70;;;;;;;;;;5021667;28;20061;-92
2022/08/05 14:52:11;;;;;;;12.00;2.83;;;;;;;;;;5026353;28;20064;-94
2022/08/05 14:54:38;;;;;;;5.80;3.10;;;;;;;;;;5039100;28;20140;-94
2022/08/05 14:57:07;;;;;;;6.03;3.42;;;;;;;;;;5033732;28;20114;-96
2022/08/05 14:59:34;;;;;;;17.58;3.65;;;;;;;;;;5025872;28;20052;-96
2022/08/05 15:02:01;;;;;;;5.35;3.28;;;;;;;;;;5032513;28;20069;-93
2022/08/05 15:04:27;;;;;;;5.43;3.20;;;;;;;;;;5034104;28;20045;-93
2022/08/05 15:06:55;;;;;;;8.32;3.53;;;;;;;;;;5027928;28;20044;-93
2022/08/05 15:09:22;;;;;;;5.68;3.22;;;;;;;;;;5031289;28;20060;-93
2022/08/05 15:11:48;;;;;;;7.22;3.58;;;;;;;;;;5034206;28;20053;-92
2022/08/05 15:14:14;;;;;;;8.20;3.00;;;;;;;;;;5027599;28;20627;-94
2022/08/05 15:16:41;;;;;;;8.43;3.20;;;;;;;;;;5019749;28;20072;-94